Time;durP1;ratioP1;P1;durP2;ratioP2;P2;SDS_P1;SDS_P2;PMS_P1;PMS_P2;Temp;Humidity;BMP_temperature;BMP_pressure;BME280_temperature;BME280_humidity;BME280_pressure;Samples;Min_cycle;Max_cycle;Signal;HPM_P1;HPM_P2
2023/07/06 00:00:36;;;;;;;2.72;2.22;;;21.70;61.70;;;;;;6276986;22;20082;-72
2023/07/06 00:03:07;;;;;;;3.80;2.22;;;21.70;61.80;;;;;;6276530;22;20027;-73
2023/07/06 00:05:51;;;;;;;4.45;2.05;;;21.60;61.80;;;;;;6249673;22;20422;-71
2023/07/06 00:08:27;;;;;;;5.78;2.10;;;21.60;61.60;;;;;;6276895;22;19995;-73
2023/07/06 00:11:09;;;;;;;3.40;2.10;;;21.60;61.40;;;;;;6249624;22;20065;-72
2023/07/06 00:13:54;;;;;;;4.18;2.65;;;21.60;61.50;;;;;;6276661;22;20070;-73
2023/07/06 00:16:33;;;;;;;3.53;2.58;;;21.60;61.40;;;;;;6276468;22;20019;-72
2023/07/06 00:19:24;;;;;;;3.47;2.35;;;21.60;61.50;;;;;;6276228;22;19991;-72
2023/07/06 00:22:06;;;;;;;4.47;2.67;;;21.60;61.50;;;;;;6247960;22;20385;-73
2023/07/06 00:24:40;;;;;;;3.85;2.22;;;21.70;61.70;;;;;;6276302;22;19991;-72
2023/07/06 00:27:15;;;;;;;4.35;2.30;;;21.70;61.70;;;;;;6277270;22;20066;-73
2023/07/06 00:30:15;;;;;;;6.50;2.90;;;21.70;61.80;;;;;;6276325;22;20000;-72
2023/07/06 00:32:48;;;;;;;3.50;2.30;;;21.60;61.60;;;;;;6276865;22;19996;-73
2023/07/06 00:35:33;;;;;;;7.07;2.60;;;21.60;61.90;;;;;;6249577;22;19992;-71
2023/07/06 00:38:19;;;;;;;4.57;3.03;;;21.60;62.00;;;;;;6277050;22;20350;-73
2023/07/06 00:40:58;;;;;;;10.23;2.90;;;21.60;62.10;;;;;;6276613;22;20118;-72
2023/07/06 00:43:52;;;;;;;6.07;2.75;;;21.60;62.60;;;;;;6276238;22;19999;-73
2023/07/06 00:46:38;;;;;;;6.60;2.42;;;21.60;62.30;;;;;;6276607;22;19995;-72
2023/07/06 00:49:21;;;;;;;5.05;2.50;;;21.60;62.00;;;;;;6276898;22;20003;-72
2023/07/06 00:52:00;;;;;;;5.28;2.60;;;21.50;62.20;;;;;;6276078;22;19999;-73
2023/07/06 00:54:47;;;;;;;3.58;2.58;;;21.50;62.10;;;;;;6249232;22;20050;-73
2023/07/06 00:57:30;;;;;;;3.70;2.63;;;21.50;62.20;;;;;;6276286;22;20002;-73
2023/07/06 01:00:08;;;;;;;9.40;2.97;;;21.50;62.10;;;;;;6276343;22;20030;-73
2023/07/06 01:02:41;;;;;;;5.03;2.63;;;21.50;62.20;;;;;;6249091;22;20038;-72
2023/07/06 01:05:22;;;;;;;6.40;3.00;;;21.50;62.20;;;;;;6276521;22;20292;-73
2023/07/06 01:08:06;;;;;;;8.43;3.40;;;21.50;62.20;;;;;;6275965;22;20003;-72
2023/07/06 01:10:49;;;;;;;6.15;3.00;;;21.50;62.30;;;;;;6248964;22;20028;-72
2023/07/06 01:13:36;;;;;;;5.00;2.70;;;21.50;62.40;;;;;;6276300;22;20004;-73
2023/07/06 01:16:18;;;;;;;7.20;3.35;;;21.40;62.50;;;;;;6275911;22;20408;-72
2023/07/06 01:19:11;;;;;;;11.23;3.30;;;21.40;62.50;;;;;;6276219;22;19996;-72
2023/07/06 01:22:23;;;;;;;7.15;3.22;;;21.40;62.70;;;;;;6276060;22;19992;-72
2023/07/06 01:25:03;;;;;;;9.60;2.97;;;21.30;62.60;;;;;;6276377;22;19992;-72
2023/07/06 01:27:59;;;;;;;6.45;3.30;;;21.30;62.70;;;;;;6275775;22;20416;-72
2023/07/06 01:31:13;;;;;;;4.68;2.83;;;21.30;62.70;;;;;;6276324;22;19996;-72
2023/07/06 01:34:27;;;;;;;6.35;3.03;;;21.30;62.60;;;;;;6248712;22;19999;-73
2023/07/06 01:37:28;;;;;;;5.37;3.10;;;21.30;62.60;;;;;;6275834;22;19991;-72
2023/07/06 01:40:00;;;;;;;5.22;3.50;;;21.30;62.80;;;;;;6276075;22;20442;-72
2023/07/06 01:42:42;;;;;;;5.57;3.75;;;21.30;63.10;;;;;;6276035;22;20459;-71
2023/07/06 01:45:25;;;;;;;4.97;3.67;;;21.30;64.10;;;;;;6275852;22;20037;-72
2023/07/06 01:48:20;;;;;;;5.05;3.33;;;21.30;63.30;;;;;;6275549;22;19992;-72
2023/07/06 01:51:15;;;;;;;4.45;3.03;;;21.20;63.20;;;;;;6247441;22;20167;-71
2023/07/06 01:53:47;;;;;;;8.90;3.70;;;21.30;63.30;;;;;;6275954;22;20000;-71
2023/07/06 01:56:39;;;;;;;6.72;2.95;;;21.30;63.30;;;;;;6275851;22;20000;-72
2023/07/06 01:59:17;;;;;;;3.97;2.88;;;21.30;63.20;;;;;;6275263;22;19999;-71
2023/07/06 02:02:01;;;;;;;6.50;3.40;;;21.30;63.20;;;;;;6275859;22;19999;-71
2023/07/06 02:04:33;;;;;;;5.68;2.88;;;21.30;63.10;;;;;;6247962;22;20000;-71
2023/07/06 02:07:05;;;;;;;6.22;2.97;;;21.40;63.10;;;;;;6275736;22;20061;-72
2023/07/06 02:09:59;;;;;;;5.60;2.92;;;21.30;63.00;;;;;;6275430;22;19992;-72
2023/07/06 02:12:47;;;;;;;7.23;3.27;;;21.30;63.00;;;;;;6248431;22;20004;-72
2023/07/06 02:15:29;;;;;;;5.78;2.90;;;21.40;63.00;;;;;;6275370;22;20000;-72
2023/07/06 02:18:08;;;;;;;3.50;2.38;;;21.40;63.10;;;;;;6275391;22;20067;-73
2023/07/06 02:20:52;;;;;;;4.15;3.03;;;21.30;63.20;;;;;;6275315;22;20030;-72
2023/07/06 02:23:23;;;;;;;;;;;21.40;63.20;;;;;;6275430;22;19996;-72
2023/07/06 02:26:09;;;;;;;7.43;2.97;;;21.40;62.60;;;;;;6275346;22;19949;-72
2023/07/06 02:28:54;;;;;;;5.72;2.95;;;21.40;62.90;;;;;;6275285;22;20415;-72
2023/07/06 02:31:28;;;;;;;10.25;3.03;;;21.30;62.90;;;;;;6275682;22;20016;-72
2023/07/06 02:34:02;;;;;;;5.05;2.67;;;21.30;63.00;;;;;;6275698;22;19992;-72
2023/07/06 02:36:47;;;;;;;4.90;2.95;;;21.30;63.10;;;;;;6275251;22;19998;-72
2023/07/06 02:39:27;;;;;;;4.88;2.90;;;21.30;63.10;;;;;;6275586;22;19999;-73
2023/07/06 02:42:09;;;;;;;4.68;3.08;;;21.30;63.10;;;;;;6275072;22;20002;-72
2023/07/06 02:44:54;;;;;;;9.43;3.17;;;21.30;63.20;;;;;;6275242;22;19995;-72
2023/07/06 02:47:22;;;;;;;4.63;2.92;;;21.30;63.30;;;;;;6249256;22;20320;-72
2023/07/06 02:50:07;;;;;;;5.32;3.28;;;21.30;63.30;;;;;;6277222;22;19996;-72
2023/07/06 02:52:44;;;;;;;4.20;2.90;;;21.30;63.30;;;;;;6277267;22;20000;-72
2023/07/06 02:55:16;;;;;;;5.68;3.15;;;21.30;63.40;;;;;;6277259;22;20438;-72
2023/07/06 02:57:47;;;;;;;7.15;2.83;;;21.30;63.30;;;;;;6277000;22;20299;-72
2023/07/06 03:00:23;;;;;;;4.60;2.50;;;21.30;63.30;;;;;;6277519;22;20078;-72
2023/07/06 03:03:02;;;;;;;5.88;3.38;;;21.30;63.40;;;;;;6277494;22;20095;-72
2023/07/06 03:05:43;;;;;;;4.03;2.88;;;21.30;63.60;;;;;;6277214;22;20022;-72
2023/07/06 03:08:24;;;;;;;7.72;3.03;;;21.30;63.60;;;;;;6276856;22;19992;-72
2023/07/06 03:10:56;;;;;;;5.00;3.03;;;21.30;63.40;;;;;;6248723;22;20035;-73
2023/07/06 03:13:33;;;;;;;5.50;2.40;;;21.30;63.50;;;;;;6277042;22;20002;-72
2023/07/06 03:16:10;;;;;;;3.80;2.15;;;21.30;63.30;;;;;;6250041;22;20050;-72
2023/07/06 03:18:52;;;;;;;6.20;2.92;;;21.30;63.00;;;;;;6250139;22;19992;-72
2023/07/06 03:21:28;;;;;;;8.50;2.97;;;21.30;63.10;;;;;;6250136;22;20023;-72
2023/07/06 03:23:59;;;;;;;7.20;2.38;;;21.30;63.00;;;;;;6249755;22;20308;-72
2023/07/06 03:26:36;;;;;;;5.80;3.03;;;21.30;62.90;;;;;;6277174;22;19996;-72
2023/07/06 03:29:20;;;;;;;4.82;2.63;;;21.20;63.20;;;;;;6277073;22;19995;-72
2023/07/06 03:32:05;;;;;;;5.93;2.28;;;21.20;63.10;;;;;;6276580;22;19999;-72
2023/07/06 03:34:50;;;;;;;4.10;2.30;;;21.20;62.90;;;;;;6248793;22;20003;-72
2023/07/06 03:37:21;;;;;;;4.22;2.10;;;21.20;62.80;;;;;;6248472;22;20051;-72
2023/07/06 03:40:10;;;;;;;4.18;2.45;;;21.10;63.10;;;;;;6276597;22;19995;-71
2023/07/06 03:43:07;;;;;;;3.88;2.47;;;21.10;63.10;;;;;;6276735;22;20355;-71
2023/07/06 03:45:50;;;;;;;7.50;3.22;;;21.10;63.40;;;;;;6244225;23;20075;-72
2023/07/06 03:48:26;;;;;;;4.65;2.53;;;21.10;63.60;;;;;;6248460;22;20047;-72
2023/07/06 03:51:22;;;;;;;6.18;2.42;;;21.10;63.60;;;;;;6249678;22;20483;-71
2023/07/06 03:54:06;;;;;;;3.55;2.28;;;21.00;63.70;;;;;;6248523;22;20296;-72
2023/07/06 03:56:47;;;;;;;3.92;2.42;;;21.10;63.60;;;;;;6276367;22;19988;-72
2023/07/06 03:59:31;;;;;;;4.32;2.35;;;21.10;63.60;;;;;;6249458;22;20035;-72
2023/07/06 04:02:00;;;;;;;4.60;2.60;;;21.10;63.60;;;;;;6275908;22;20004;-72
2023/07/06 04:04:44;;;;;;;14.18;2.50;;;21.10;63.70;;;;;;6276304;22;20073;-72
2023/07/06 04:07:25;;;;;;;3.58;2.17;;;21.20;63.90;;;;;;6276529;22;19992;-71
2023/07/06 04:09:56;;;;;;;5.30;2.58;;;21.20;63.90;;;;;;6276120;22;20075;-72
2023/07/06 04:12:35;;;;;;;4.05;2.75;;;21.30;63.90;;;;;;6249543;22;20023;-73
2023/07/06 04:15:20;;;;;;;6.32;2.75;;;21.30;63.70;;;;;;6276726;22;20000;-73
2023/07/06 04:17:52;;;;;;;6.80;3.13;;;21.40;63.40;;;;;;6276822;22;20303;-73
2023/07/06 04:20:35;;;;;;;4.13;2.80;;;21.40;63.40;;;;;;6249506;22;20308;-73
2023/07/06 04:23:11;;;;;;;3.95;2.58;;;21.50;63.40;;;;;;6276760;22;19998;-73
2023/07/06 04:25:45;;;;;;;5.32;3.00;;;21.50;63.30;;;;;;6249781;22;19999;-72
2023/07/06 04:28:24;;;;;;;;;;;21.50;63.40;;;;;;6277380;22;19992;-73
2023/07/06 04:31:00;;;;;;;5.35;2.70;;;21.50;63.10;;;;;;6248124;22;20270;-73
2023/07/06 04:33:39;;;;;;;8.32;4.35;;;21.60;63.10;;;;;;6249387;22;20343;-73
2023/07/06 04:36:17;;;;;;;7.70;4.15;;;21.60;63.00;;;;;;6276343;22;20000;-73
2023/07/06 04:38:56;;;;;;;7.45;3.13;;;21.60;63.20;;;;;;6276573;22;20399;-73
2023/07/06 04:41:35;;;;;;;7.65;3.40;;;21.60;63.50;;;;;;6276474;22;20050;-72
2023/07/06 04:44:17;;;;;;;18.70;4.15;;;21.70;63.30;;;;;;6276434;22;20372;-73
2023/07/06 04:46:58;;;;;;;13.82;3.38;;;21.70;63.30;;;;;;6275776;22;20414;-73
2023/07/06 04:49:37;;;;;;;10.63;3.35;;;21.80;63.20;;;;;;6276032;22;19996;-72
2023/07/06 04:52:22;;;;;;;16.67;3.75;;;21.90;62.90;;;;;;6276306;22;20007;-72
2023/07/06 04:54:50;;;;;;;9.90;3.17;;;21.90;62.60;;;;;;6276041;22;19991;-73
2023/07/06 04:57:32;;;;;;;16.42;3.20;;;22.00;62.30;;;;;;6276051;22;19992;-73
2023/07/06 05:00:16;;;;;;;13.20;3.47;;;22.00;62.20;;;;;;6275992;22;20026;-73
2023/07/06 05:02:47;;;;;;;6.40;2.90;;;22.00;61.90;;;;;;6248838;22;20086;-73
2023/07/06 05:05:18;;;;;;;6.75;3.13;;;22.00;61.70;;;;;;6276214;22;20000;-72
2023/07/06 05:07:46;;;;;;;12.77;4.03;;;22.00;61.70;;;;;;6248749;22;20073;-72
2023/07/06 05:10:14;;;;;;;12.18;3.97;;;22.00;61.80;;;;;;6275834;22;20019;-72
2023/07/06 05:13:38;;;;;;;11.10;4.18;;;22.00;61.90;;;;;;6275667;22;20049;-73
2023/07/06 05:23:03;;;;;;;12.23;3.47;;;22.10;62.00;;;;;;6275607;22;19996;-73
2023/07/06 05:25:29;;;;;;;8.68;3.72;;;22.20;62.00;;;;;;6248782;22;20000;-73
2023/07/06 05:27:58;;;;;;;12.68;3.47;;;22.30;62.10;;;;;;6275716;22;20000;-73
2023/07/06 05:30:23;;;;;;;8.77;3.75;;;22.30;62.10;;;;;;6275186;22;19992;-71
2023/07/06 05:32:51;;;;;;;10.38;3.60;;;22.40;62.10;;;;;;6277233;22;20003;-71
2023/07/06 05:35:24;;;;;;;3.95;2.65;;;22.40;61.90;;;;;;6250402;22;19999;-72
2023/07/06 05:37:55;;;;;;;6.13;3.15;;;22.50;61.70;;;;;;6274418;22;20307;-72
2023/07/06 05:40:23;;;;;;;4.45;3.30;;;22.60;61.30;;;;;;6276145;22;20002;-72
2023/07/06 05:42:54;;;;;;;5.82;3.83;;;22.60;61.00;;;;;;6248751;22;20061;-72
2023/07/06 05:45:22;;;;;;;7.63;4.60;;;22.70;60.60;;;;;;6275416;22;20019;-73
2023/07/06 05:47:48;;;;;;;11.55;5.30;;;22.70;60.40;;;;;;6275510;22;19992;-73
2023/07/06 05:50:21;;;;;;;9.75;5.60;;;22.80;60.30;;;;;;6248539;22;20007;-72
2023/07/06 05:52:47;;;;;;;8.55;5.50;;;22.80;60.20;;;;;;6275536;22;20002;-73
2023/07/06 05:55:16;;;;;;;7.90;5.53;;;22.80;60.10;;;;;;6275729;22;19996;-73
2023/07/06 05:57:45;;;;;;;8.60;5.43;;;22.90;60.00;;;;;;6275710;22;20253;-72
2023/07/06 06:00:11;;;;;;;9.35;5.75;;;22.90;60.00;;;;;;6275505;22;20003;-72
2023/07/06 06:02:42;;;;;;;18.65;12.45;;;23.00;60.20;;;;;;6248722;22;20094;-73
2023/07/06 06:05:15;;;;;;;23.08;16.15;;;23.10;59.50;;;;;;6275578;22;20388;-73
2023/07/06 06:07:47;;;;;;;20.95;15.68;;;23.20;59.00;;;;;;6248831;22;20003;-72
2023/07/06 06:10:18;;;;;;;20.52;13.50;;;23.30;59.30;;;;;;6275534;22;20316;-73
2023/07/06 06:12:47;;;;;;;21.80;15.02;;;23.50;59.30;;;;;;6245796;22;20038;-73
2023/07/06 06:15:15;;;;;;;18.65;14.02;;;23.60;58.60;;;;;;6248809;22;19999;-73
2023/07/06 06:17:40;;;;;;;20.05;13.20;;;23.70;58.50;;;;;;6275519;22;20407;-73
2023/07/06 06:20:11;;;;;;;22.63;15.52;;;23.80;58.40;;;;;;6275117;22;20010;-72
2023/07/06 06:22:42;;;;;;;20.80;14.07;;;23.90;57.30;;;;;;6275681;22;20331;-73
2023/07/06 06:25:11;;;;;;;21.33;15.00;;;23.90;57.10;;;;;;6248467;22;20427;-73
2023/07/06 06:27:38;;;;;;;20.63;15.23;;;23.90;57.00;;;;;;6275682;22;19988;-73
2023/07/06 06:30:07;;;;;;;19.80;12.85;;;23.90;56.80;;;;;;6275481;22;19998;-72
2023/07/06 06:32:37;;;;;;;21.33;15.32;;;23.90;57.10;;;;;;6275599;22;19992;-73
2023/07/06 06:35:23;;;;;;;16.88;12.98;;;23.90;56.80;;;;;;6275571;22;19996;-73
2023/07/06 06:37:54;;;;;;;14.68;10.32;;;24.00;57.20;;;;;;6248697;22;20006;-72
2023/07/06 06:40:22;;;;;;;14.85;11.95;;;24.00;57.30;;;;;;6248319;22;20000;-72
2023/07/06 06:42:48;;;;;;;20.00;15.98;;;24.10;57.30;;;;;;6275371;22;19991;-72
2023/07/06 06:45:17;;;;;;;22.13;16.80;;;24.20;57.00;;;;;;6275377;22;20003;-73
2023/07/06 06:47:44;;;;;;;18.08;15.57;;;24.40;56.90;;;;;;6275311;22;20129;-72
2023/07/06 06:50:20;;;;;;;23.88;14.77;;;24.50;56.80;;;;;;6274694;22;19995;-72
2023/07/06 06:52:46;;;;;;;16.73;12.40;;;24.60;56.60;;;;;;6248270;22;20003;-73
2023/07/06 06:55:13;;;;;;;19.63;14.68;;;24.70;56.50;;;;;;6276028;22;20053;-73
2023/07/06 06:57:39;;;;;;;26.90;15.75;;;24.80;56.00;;;;;;6275146;22;20022;-72
2023/07/06 07:00:09;;;;;;;18.73;14.35;;;24.80;55.50;;;;;;6248103;22;20003;-73
2023/07/06 07:02:44;;;;;;;22.45;14.73;;;24.90;55.50;;;;;;6275672;22;20061;-72
2023/07/06 07:05:12;;;;;;;19.20;14.10;;;25.00;55.30;;;;;;6248204;22;20401;-72
2023/07/06 07:07:41;;;;;;;19.40;13.45;;;25.00;55.10;;;;;;6248732;22;20000;-73
2023/07/06 07:10:10;;;;;;;18.67;13.68;;;25.00;55.00;;;;;;6275003;22;20003;-73
2023/07/06 07:12:41;;;;;;;18.05;14.68;;;25.10;55.10;;;;;;6275238;22;20023;-73
2023/07/06 07:15:14;;;;;;;17.75;13.07;;;25.10;54.90;;;;;;6275305;22;20020;-71
2023/07/06 07:17:40;;;;;;;22.58;14.98;;;25.20;55.20;;;;;;6276125;22;19992;-71
2023/07/06 07:20:10;;;;;;;19.98;13.90;;;25.30;54.50;;;;;;6275518;22;20017;-71
2023/07/06 07:22:36;;;;;;;18.98;14.18;;;25.40;54.60;;;;;;6275133;22;20070;-71
2023/07/06 07:25:04;;;;;;;24.77;20.13;;;25.50;53.80;;;;;;6248283;22;20031;-72
2023/07/06 07:27:34;;;;;;;24.90;20.50;;;25.70;53.70;;;;;;6274814;22;20066;-72
2023/07/06 07:30:03;;;;;;;31.05;25.13;;;25.90;53.20;;;;;;6274754;22;20011;-71
2023/07/06 07:32:29;;;;;;;36.75;29.40;;;26.10;52.80;;;;;;6249370;22;20412;-72
2023/07/06 07:34:58;;;;;;;42.33;27.08;;;26.30;52.00;;;;;;6249686;22;20004;-72
2023/07/06 07:37:25;;;;;;;31.55;24.58;;;26.50;52.00;;;;;;6249868;22;19996;-72
2023/07/06 07:39:55;;;;;;;27.60;21.15;;;26.60;51.60;;;;;;6277134;22;19992;-72
2023/07/06 07:42:21;;;;;;;33.85;22.23;;;26.70;51.40;;;;;;6249418;22;19996;-73
2023/07/06 07:44:49;;;;;;;35.55;24.52;;;26.90;51.00;;;;;;6276719;22;20304;-72
2023/07/06 07:47:19;;;;;;;35.78;28.75;;;26.90;50.00;;;;;;6249843;22;20007;-72
2023/07/06 07:49:46;;;;;;;40.70;28.48;;;27.00;49.60;;;;;;6249680;22;20000;-72
2023/07/06 07:52:13;;;;;;;41.05;31.88;;;27.00;48.30;;;;;;6277095;22;19991;-72
2023/07/06 07:54:39;;;;;;;32.97;25.65;;;27.00;47.30;;;;;;6277228;22;20301;-72
2023/07/06 07:57:11;;;;;;;23.27;17.20;;;27.00;47.80;;;;;;6277060;22;20019;-73
2023/07/06 07:59:39;;;;;;;26.52;20.38;;;26.90;47.90;;;;;;6276717;22;20071;-72
2023/07/06 08:02:08;;;;;;;25.25;20.25;;;26.90;47.80;;;;;;6276939;22;20086;-72
2023/07/06 08:04:36;;;;;;;21.45;17.38;;;26.80;47.80;;;;;;6277050;22;19992;-73
2023/07/06 08:07:05;;;;;;;17.60;14.15;;;26.80;48.20;;;;;;6249641;22;20015;-73
2023/07/06 08:09:34;;;;;;;18.33;12.98;;;26.80;48.00;;;;;;6276666;22;19999;-73
2023/07/06 08:12:06;;;;;;;19.35;14.50;;;26.90;47.90;;;;;;6276644;22;20403;-72
2023/07/06 08:14:37;;;;;;;15.93;12.70;;;26.80;46.30;;;;;;6249662;22;20391;-73
2023/07/06 08:17:04;;;;;;;20.95;13.80;;;26.80;46.80;;;;;;6276958;22;20002;-73
2023/07/06 08:19:32;;;;;;;17.20;13.02;;;26.70;47.50;;;;;;6249255;22;20029;-73
2023/07/06 08:21:59;;;;;;;20.13;12.70;;;26.70;47.70;;;;;;6275992;22;20389;-73
2023/07/06 08:24:24;;;;;;;21.08;12.77;;;26.70;47.80;;;;;;6276372;22;20000;-73
2023/07/06 08:26:50;;;;;;;16.15;12.98;;;26.70;47.90;;;;;;6276761;22;20390;-71
2023/07/06 08:29:17;;;;;;;17.60;11.77;;;26.60;47.70;;;;;;6249466;22;20042;-71
2023/07/06 08:31:45;;;;;;;23.08;11.30;;;26.50;47.80;;;;;;6249413;22;20069;-72
2023/07/06 08:34:16;;;;;;;17.30;11.18;;;26.40;47.70;;;;;;6249477;22;20400;-71
2023/07/06 08:36:43;;;;;;;14.35;9.52;;;26.40;47.90;;;;;;6249567;22;20031;-71
2023/07/06 08:39:09;;;;;;;11.40;8.55;;;26.30;47.30;;;;;;6276448;22;20003;-71
2023/07/06 08:41:42;;;;;;;13.73;9.25;;;26.30;47.50;;;;;;6249313;22;20082;-71
2023/07/06 08:44:14;;;;;;;14.80;8.65;;;26.30;46.80;;;;;;6276037;22;20155;-72
2023/07/06 08:46:50;;;;;;;14.18;7.40;;;26.20;46.30;;;;;;6249228;22;19996;-72
2023/07/06 08:49:33;;;;;;;12.55;6.93;;;26.20;46.90;;;;;;6275967;22;19992;-72
2023/07/06 08:52:05;;;;;;;13.07;7.47;;;26.20;47.30;;;;;;6276635;22;20347;-72
2023/07/06 08:54:36;;;;;;;11.18;6.63;;;26.20;47.30;;;;;;6276371;22;20211;-72
2023/07/06 08:57:09;;;;;;;12.15;6.78;;;26.30;47.20;;;;;;6276465;22;19995;-72
2023/07/06 08:59:42;;;;;;;12.38;5.90;;;26.30;47.10;;;;;;6249234;22;20013;-72
2023/07/06 09:02:19;;;;;;;14.88;6.05;;;26.40;47.10;;;;;;6276559;22;20007;-72
2023/07/06 09:04:47;;;;;;;9.63;5.20;;;26.40;46.60;;;;;;6275641;22;19999;-72
2023/07/06 09:07:16;;;;;;;8.65;5.15;;;26.50;46.10;;;;;;6248762;22;20011;-72
2023/07/06 09:09:46;;;;;;;9.15;4.68;;;26.50;45.80;;;;;;6275446;22;20312;-72
2023/07/06 09:12:24;;;;;;;10.52;4.65;;;26.60;45.50;;;;;;6275713;22;20431;-72
2023/07/06 09:14:56;;;;;;;7.60;4.00;;;26.70;44.70;;;;;;6275693;22;20408;-72
2023/07/06 09:17:27;;;;;;;6.32;3.08;;;26.70;43.60;;;;;;6248617;22;20086;-72
2023/07/06 09:19:59;;;;;;;8.52;3.42;;;26.70;40.50;;;;;;6276093;22;20063;-72
2023/07/06 09:22:30;;;;;;;5.75;3.53;;;26.70;37.80;;;;;;6276993;22;20059;-72
2023/07/06 09:25:05;;;;;;;7.00;3.72;;;26.70;37.60;;;;;;6248815;22;20010;-72
2023/07/06 09:27:32;;;;;;;5.93;3.65;;;26.70;37.80;;;;;;6275438;22;20070;-70
2023/07/06 09:30:02;;;;;;;5.97;4.03;;;26.70;37.50;;;;;;6249868;22;20003;-71
2023/07/06 09:32:33;;;;;;;5.68;3.15;;;26.70;36.50;;;;;;6250042;22;20169;-72
2023/07/06 09:35:21;;;;;;;4.35;3.00;;;26.70;38.50;;;;;;6250269;22;20018;-72
2023/07/06 09:38:00;;;;;;;7.57;3.20;;;26.70;38.40;;;;;;6276746;22;20071;-72
2023/07/06 09:40:30;;;;;;;4.93;2.85;;;26.90;37.80;;;;;;6276345;22;20000;-71
2023/07/06 09:42:59;;;;;;;4.57;2.97;;;26.90;37.30;;;;;;6249938;22;20327;-71
2023/07/06 09:45:29;;;;;;;6.82;2.78;;;27.00;37.80;;;;;;6249533;22;20055;-70
2023/07/06 09:48:09;;;;;;;4.32;3.08;;;27.10;37.20;;;;;;6250582;22;20411;-70
2023/07/06 09:50:51;;;;;;;10.75;2.90;;;27.10;36.80;;;;;;6276033;22;19999;-70
2023/07/06 09:53:30;;;;;;;4.60;2.70;;;27.20;36.60;;;;;;6275733;22;20007;-75
2023/07/06 09:55:56;;;;;;;6.28;2.97;;;27.20;35.80;;;;;;6275712;22;20306;-72
2023/07/06 09:58:30;;;;;;;8.13;3.53;;;27.30;35.60;;;;;;6276748;22;19991;-71
2023/07/06 10:01:27;;;;;;;;;;;27.30;36.40;;;;;;6275138;22;20408;-72
2023/07/06 10:04:11;;;;;;;7.20;3.65;;;27.30;38.60;;;;;;6270858;22;19907;-71
2023/07/06 10:07:01;;;;;;;5.47;3.17;;;27.40;36.90;;;;;;6273902;22;19999;-71
2023/07/06 10:09:38;;;;;;;7.68;3.08;;;27.50;37.60;;;;;;6274102;22;20427;-71
2023/07/06 10:12:27;;;;;;;4.22;2.72;;;27.60;35.50;;;;;;6275407;22;20000;-71
2023/07/06 10:15:14;;;;;;;4.78;3.60;;;27.50;36.60;;;;;;6274399;22;20067;-71
2023/07/06 10:17:50;;;;;;;8.25;3.67;;;27.60;34.80;;;;;;6248416;22;20408;-71
2023/07/06 10:20:33;;;;;;;5.82;3.58;;;27.60;35.00;;;;;;6247830;22;20006;-72
2023/07/06 10:23:40;;;;;;;13.20;7.70;;;27.60;34.70;;;;;;6275121;22;19988;-72
2023/07/06 10:26:29;;;;;;;9.30;4.57;;;27.60;35.40;;;;;;6246643;22;20004;-71
2023/07/06 10:29:16;;;;;;;6.55;4.00;;;27.70;35.10;;;;;;6274368;22;20065;-72
2023/07/06 10:32:10;;;;;;;8.25;4.50;;;27.80;35.80;;;;;;6272979;22;19999;-73
2023/07/06 10:34:53;;;;;;;7.15;3.90;;;27.90;35.60;;;;;;6248118;22;20144;-71
2023/07/06 10:37:39;;;;;;;9.27;4.88;;;27.90;34.30;;;;;;6274588;22;20351;-71
2023/07/06 10:40:35;;;;;;;6.28;4.38;;;27.90;32.70;;;;;;6272728;22;20038;-71
2023/07/06 10:43:13;;;;;;;6.55;3.50;;;28.00;33.10;;;;;;6272538;22;19996;-71
2023/07/06 10:45:51;;;;;;;7.35;4.35;;;28.00;34.40;;;;;;6272804;22;20026;-72
2023/07/06 10:48:34;;;;;;;7.35;4.03;;;28.10;33.60;;;;;;6274271;22;20003;-71
2023/07/06 10:51:22;;;;;;;7.57;4.00;;;28.10;33.60;;;;;;6245347;22;20003;-71
2023/07/06 10:54:06;;;;;;;12.70;3.97;;;28.20;33.50;;;;;;6247863;22;20073;-71
2023/07/06 10:56:47;;;;;;;6.90;3.65;;;28.30;34.00;;;;;;6274890;22;20006;-71
2023/07/06 10:59:26;;;;;;;5.38;3.60;;;28.40;34.20;;;;;;6274613;22;20063;-71
2023/07/06 11:02:17;;;;;;;9.23;3.90;;;28.50;33.60;;;;;;6274556;22;20008;-71
2023/07/06 11:04:57;;;;;;;7.20;3.85;;;28.60;34.40;;;;;;6274608;22;20007;-73
2023/07/06 11:07:44;;;;;;;5.45;3.92;;;28.80;34.50;;;;;;6246643;22;20004;-71
2023/07/06 11:10:38;;;;;;;8.77;3.78;;;28.90;33.60;;;;;;6276993;22;20003;-70
2023/07/06 11:13:20;;;;;;;7.82;3.90;;;29.10;34.00;;;;;;6249667;22;20079;-70
2023/07/06 11:16:06;;;;;;;12.52;3.22;;;29.20;32.20;;;;;;6276590;22;20003;-72
2023/07/06 11:18:46;;;;;;;9.23;4.55;;;29.50;33.20;;;;;;6276797;22;20004;-71
2023/07/06 11:21:45;;;;;;;6.03;4.07;;;29.70;31.30;;;;;;6276960;22;20382;-71
2023/07/06 11:24:33;;;;;;;5.45;3.45;;;29.80;32.40;;;;;;6276722;22;19996;-72
2023/07/06 11:27:44;;;;;;;4.30;3.38;;;30.00;32.60;;;;;;6276212;22;20082;-72
2023/07/06 11:30:25;;;;;;;5.00;2.95;;;30.20;33.00;;;;;;6276247;22;20353;-73
2023/07/06 11:33:15;;;;;;;9.60;3.80;;;30.30;31.60;;;;;;6276422;22;20000;-73
2023/07/06 11:36:06;;;;;;;5.88;3.13;;;30.50;31.60;;;;;;6275240;22;20000;-73
2023/07/06 11:39:07;;;;;;;5.57;3.95;;;30.60;31.30;;;;;;6276472;22;20000;-73
2023/07/06 11:41:53;;;;;;;4.55;3.17;;;30.70;31.50;;;;;;6276058;22;20420;-72
2023/07/06 11:44:53;;;;;;;5.47;3.40;;;30.80;30.00;;;;;;6276442;22;19996;-73
2023/07/06 11:48:06;;;;;;;5.22;3.75;;;30.70;28.30;;;;;;6249277;22;20427;-72
2023/07/06 11:50:49;;;;;;;4.07;2.87;;;30.80;30.10;;;;;;6276360;22;20014;-73
2023/07/06 11:53:31;;;;;;;5.07;2.95;;;30.80;29.70;;;;;;6276119;22;20066;-73
2023/07/06 11:56:18;;;;;;;10.47;3.30;;;30.90;29.80;;;;;;6277204;22;20026;-73
2023/07/06 11:59:01;;;;;;;5.30;3.25;;;30.90;29.20;;;;;;6276836;22;19996;-73
2023/07/06 12:01:45;;;;;;;4.72;3.30;;;31.00;29.60;;;;;;6276709;22;20061;-73
2023/07/06 12:04:26;;;;;;;7.75;3.25;;;31.00;29.70;;;;;;6249326;22;20006;-73
2023/07/06 12:07:08;;;;;;;4.80;3.38;;;31.10;29.40;;;;;;6276743;22;20006;-73
2023/07/06 12:09:37;;;;;;;3.75;2.97;;;31.10;28.70;;;;;;6276185;22;20075;-73
2023/07/06 12:12:12;;;;;;;8.07;3.17;;;31.10;29.00;;;;;;6276731;22;20003;-74
2023/07/06 12:14:54;;;;;;;5.38;3.50;;;31.10;26.40;;;;;;6249809;22;20004;-76
2023/07/06 12:17:34;;;;;;;4.78;3.42;;;31.10;26.30;;;;;;6276936;22;19999;-73
2023/07/06 12:20:10;;;;;;;5.18;2.95;;;31.00;26.40;;;;;;6276767;22;20004;-73
2023/07/06 12:22:58;;;;;;;5.45;3.13;;;31.10;26.90;;;;;;6276920;22;19996;-71
2023/07/06 12:25:38;;;;;;;5.15;3.15;;;31.00;27.10;;;;;;6249342;22;19995;-74
2023/07/06 12:28:16;;;;;;;4.90;3.17;;;31.00;27.00;;;;;;6248032;22;20003;-73
2023/07/06 12:30:49;;;;;;;4.88;3.30;;;31.00;27.00;;;;;;6275898;22;20489;-72
2023/07/06 12:33:25;;;;;;;3.67;3.22;;;31.00;27.70;;;;;;6276347;22;20019;-74
2023/07/06 12:36:02;;;;;;;7.88;3.20;;;31.20;27.80;;;;;;6276357;22;20022;-73
2023/07/06 12:38:39;;;;;;;10.93;3.60;;;31.40;27.80;;;;;;6275626;22;20058;-73
2023/07/06 12:41:21;;;;;;;5.30;3.35;;;31.60;27.30;;;;;;6249460;22;20007;-72
2023/07/06 12:44:03;;;;;;;7.20;5.03;;;31.80;27.10;;;;;;6248275;22;20086;-72
2023/07/06 12:46:48;;;;;;;7.65;3.53;;;32.00;26.70;;;;;;6248570;22;20443;-71
2023/07/06 12:49:33;;;;;;;4.50;3.60;;;32.20;26.50;;;;;;6247482;22;20500;-66
2023/07/06 12:52:10;;;;;;;4.25;3.20;;;32.30;26.10;;;;;;6276157;22;20028;-73
2023/07/06 12:55:07;;;;;;;9.27;3.35;;;32.40;25.30;;;;;;6275921;22;20006;-73
2023/07/06 12:57:46;;;;;;;5.25;3.08;;;32.60;26.20;;;;;;6275818;22;20003;-73
2023/07/06 13:00:32;;;;;;;5.90;4.15;;;32.70;25.80;;;;;;6275519;22;20421;-73
2023/07/06 13:03:18;;;;;;;9.80;8.05;;;32.90;25.50;;;;;;6276260;22;20007;-73
2023/07/06 13:05:54;;;;;;;13.07;11.00;;;32.90;25.80;;;;;;6274737;22;20330;-73
2023/07/06 13:08:34;;;;;;;8.07;5.43;;;32.90;25.80;;;;;;6276576;22;19995;-73
2023/07/06 13:11:09;;;;;;;5.72;4.03;;;32.90;25.40;;;;;;6276170;22;20324;-72
2023/07/06 13:13:48;;;;;;;11.20;8.80;;;32.90;25.00;;;;;;6248564;22;20014;-72
2023/07/06 13:16:30;;;;;;;12.13;9.27;;;32.80;25.30;;;;;;6275917;22;20082;-74
2023/07/06 13:19:11;;;;;;;13.43;11.38;;;32.70;25.50;;;;;;6276035;22;19992;-74
2023/07/06 13:21:48;;;;;;;5.07;4.28;;;32.60;25.90;;;;;;6276020;22;20026;-72
2023/07/06 13:24:30;;;;;;;5.18;3.78;;;32.50;24.90;;;;;;6275912;22;19996;-73
2023/07/06 13:27:12;;;;;;;4.60;3.63;;;32.40;24.90;;;;;;6274617;22;20019;-73
2023/07/06 13:29:50;;;;;;;6.15;3.55;;;32.20;24.80;;;;;;6275111;22;20075;-74
2023/07/06 13:32:22;;;;;;;4.55;3.75;;;32.20;24.50;;;;;;6248668;22;20042;-74
2023/07/06 13:35:01;;;;;;;7.18;3.38;;;32.00;23.90;;;;;;6275624;22;20000;-74
2023/07/06 13:37:32;;;;;;;4.35;3.35;;;32.00;24.60;;;;;;6275268;22;19999;-74
2023/07/06 13:40:04;;;;;;;3.90;2.88;;;32.00;24.60;;;;;;6275234;22;20412;-73
2023/07/06 13:42:46;;;;;;;4.35;3.28;;;32.10;24.50;;;;;;6248343;22;20034;-74
2023/07/06 13:45:30;;;;;;;3.80;3.22;;;32.20;24.90;;;;;;6247757;22;20421;-74